sensor_id;sensor_type;location;lat;lon;timestamp;pressure;altitude;pressure_sealevel;temperature;humidity
20612;BME280;10465;42.686;23.364;2023-04-30T00:01:27;94682.38;;;13.24;73.54
20612;BME280;10465;42.686;23.364;2023-04-30T00:03:54;94676.13;;;13.20;73.26
20612;BME280;10465;42.686;23.364;2023-04-30T00:06:20;94674.31;;;13.11;72.77
20612;BME280;10465;42.686;23.364;2023-04-30T00:08:45;94681.94;;;13.01;73.49
20612;BME280;10465;42.686;23.364;2023-04-30T00:11:11;94685.63;;;13.08;73.17
20612;BME280;10465;42.686;23.364;2023-04-30T00:13:36;94665.59;;;12.90;73.44
20612;BME280;10465;42.686;23.364;2023-04-30T00:16:02;94674.84;;;12.84;72.40
20612;BME280;10465;42.686;23.364;2023-04-30T00:18:27;94663.00;;;12.81;72.25
20612;BME280;10465;42.686;23.364;2023-04-30T00:20:53;94675.81;;;12.79;72.17
20612;BME280;10465;42.686;23.364;2023-04-30T00:23:18;94680.69;;;12.77;71.88
20612;BME280;10465;42.686;23.364;2023-04-30T00:25:44;94659.56;;;12.60;71.70
20612;BME280;10465;42.686;23.364;2023-04-30T00:28:09;94652.53;;;12.55;71.26
20612;BME280;10465;42.686;23.364;2023-04-30T00:30:35;94673.53;;;12.69;71.27
20612;BME280;10465;42.686;23.364;2023-04-30T00:33:00;94626.22;;;12.42;71.21
20612;BME280;10465;42.686;23.364;2023-04-30T00:35:26;94678.03;;;12.77;71.17
20612;BME280;10465;42.686;23.364;2023-04-30T00:37:51;94672.31;;;12.67;71.05
20612;BME280;10465;42.686;23.364;2023-04-30T00:40:17;94691.25;;;12.86;71.50
20612;BME280;10465;42.686;23.364;2023-04-30T00:42:42;94670.75;;;12.66;71.41
20612;BME280;10465;42.686;23.364;2023-04-30T00:45:08;94675.66;;;12.76;71.20
20612;BME280;10465;42.686;23.364;2023-04-30T00:47:33;94687.69;;;12.82;70.81
20612;BME280;10465;42.686;23.364;2023-04-30T00:49:59;94671.34;;;12.71;71.00
20612;BME280;10465;42.686;23.364;2023-04-30T00:52:26;94673.75;;;12.55;71.42
20612;BME280;10465;42.686;23.364;2023-04-30T00:54:51;94661.28;;;12.56;71.41
20612;BME280;10465;42.686;23.364;2023-04-30T00:57:19;94685.44;;;12.63;71.46
20612;BME280;10465;42.686;23.364;2023-04-30T00:59:45;94679.34;;;12.62;71.51
20612;BME280;10465;42.686;23.364;2023-04-30T01:02:12;94676.16;;;12.48;71.96
20612;BME280;10465;42.686;23.364;2023-04-30T01:04:38;94684.56;;;12.50;72.40
20612;BME280;10465;42.686;23.364;2023-04-30T01:07:04;94641.94;;;12.26;72.56
20612;BME280;10465;42.686;23.364;2023-04-30T01:09:30;94664.16;;;12.42;72.44
20612;BME280;10465;42.686;23.364;2023-04-30T01:12:32;94673.19;;;12.50;72.52
20612;BME280;10465;42.686;23.364;2023-04-30T01:18:00;94681.84;;;12.38;72.99
20612;BME280;10465;42.686;23.364;2023-04-30T01:20:28;94681.66;;;12.43;73.09
20612;BME280;10465;42.686;23.364;2023-04-30T01:23:10;94674.97;;;12.37;72.84
20612;BME280;10465;42.686;23.364;2023-04-30T01:25:55;94680.59;;;12.35;73.42
20612;BME280;10465;42.686;23.364;2023-04-30T01:28:26;94668.03;;;12.24;73.55
20612;BME280;10465;42.686;23.364;2023-04-30T01:30:52;94678.31;;;12.25;74.03
20612;BME280;10465;42.686;23.364;2023-04-30T01:33:18;94667.78;;;12.08;74.28
20612;BME280;10465;42.686;23.364;2023-04-30T01:36:08;94680.22;;;12.16;74.41
20612;BME280;10465;42.686;23.364;2023-04-30T01:44:23;94681.00;;;12.17;74.04
20612;BME280;10465;42.686;23.364;2023-04-30T01:46:57;94671.00;;;12.13;73.90
20612;BME280;10465;42.686;23.364;2023-04-30T01:52:53;94674.25;;;12.19;73.85
20612;BME280;10465;42.686;23.364;2023-04-30T01:55:27;94669.47;;;12.12;74.43
20612;BME280;10465;42.686;23.364;2023-04-30T01:57:55;94679.56;;;12.19;74.14
20612;BME280;10465;42.686;23.364;2023-04-30T02:00:22;94668.66;;;12.21;74.01
20612;BME280;10465;42.686;23.364;2023-04-30T02:02:47;94660.06;;;12.24;73.49
20612;BME280;10465;42.686;23.364;2023-04-30T02:05:13;94663.75;;;12.31;73.62
20612;BME280;10465;42.686;23.364;2023-04-30T02:07:42;94674.69;;;12.30;73.75
20612;BME280;10465;42.686;23.364;2023-04-30T02:10:09;94680.13;;;12.33;73.51
20612;BME280;10465;42.686;23.364;2023-04-30T02:12:37;94657.06;;;12.25;73.14
20612;BME280;10465;42.686;23.364;2023-04-30T02:15:04;94662.97;;;12.31;73.05
20612;BME280;10465;42.686;23.364;2023-04-30T02:17:30;94664.72;;;12.27;72.99
20612;BME280;10465;42.686;23.364;2023-04-30T02:19:58;94651.03;;;12.16;72.92
20612;BME280;10465;42.686;23.364;2023-04-30T02:22:25;94684.03;;;12.36;72.89
20612;BME280;10465;42.686;23.364;2023-04-30T02:24:50;94673.09;;;12.37;73.14
20612;BME280;10465;42.686;23.364;2023-04-30T02:27:19;94666.72;;;12.30;72.98
20612;BME280;10465;42.686;23.364;2023-04-30T02:29:45;94679.19;;;12.38;72.72
20612;BME280;10465;42.686;23.364;2023-04-30T02:32:11;94673.28;;;12.32;73.05
20612;BME280;10465;42.686;23.364;2023-04-30T02:34:36;94674.06;;;12.33;73.20
20612;BME280;10465;42.686;23.364;2023-04-30T02:37:02;94669.97;;;12.35;72.22
20612;BME280;10465;42.686;23.364;2023-04-30T02:39:27;94663.31;;;12.29;71.84
20612;BME280;10465;42.686;23.364;2023-04-30T02:41:53;94675.75;;;12.37;71.76
20612;BME280;10465;42.686;23.364;2023-04-30T02:44:18;94686.03;;;12.39;72.00
20612;BME280;10465;42.686;23.364;2023-04-30T02:46:44;94662.66;;;12.32;72.42
20612;BME280;10465;42.686;23.364;2023-04-30T02:49:09;94677.94;;;12.35;73.24
20612;BME280;10465;42.686;23.364;2023-04-30T02:51:34;94674.09;;;12.24;73.34
20612;BME280;10465;42.686;23.364;2023-04-30T02:54:00;94677.81;;;12.32;73.18
20612;BME280;10465;42.686;23.364;2023-04-30T02:56:25;94658.22;;;12.16;73.05
20612;BME280;10465;42.686;23.364;2023-04-30T02:58:51;94677.72;;;12.20;73.25
20612;BME280;10465;42.686;23.364;2023-04-30T03:01:16;94668.69;;;12.12;73.13
20612;BME280;10465;42.686;23.364;2023-04-30T03:03:42;94691.91;;;12.24;73.08
20612;BME280;10465;42.686;23.364;2023-04-30T03:06:07;94688.00;;;12.21;73.86
20612;BME280;10465;42.686;23.364;2023-04-30T03:08:32;94692.69;;;12.24;74.21
20612;BME280;10465;42.686;23.364;2023-04-30T03:10:58;94699.38;;;12.22;73.66
20612;BME280;10465;42.686;23.364;2023-04-30T03:13:23;94687.84;;;12.18;73.67
20612;BME280;10465;42.686;23.364;2023-04-30T03:15:58;94694.09;;;12.22;74.11
20612;BME280;10465;42.686;23.364;2023-04-30T03:18:25;94676.19;;;12.10;74.16
20612;BME280;10465;42.686;23.364;2023-04-30T03:20:51;94690.66;;;12.21;74.23
20612;BME280;10465;42.686;23.364;2023-04-30T03:23:16;94695.38;;;12.16;74.48
20612;BME280;10465;42.686;23.364;2023-04-30T03:25:42;94692.38;;;12.17;75.14
20612;BME280;10465;42.686;23.364;2023-04-30T03:28:07;94699.31;;;12.01;75.62
20612;BME280;10465;42.686;23.364;2023-04-30T03:30:32;94694.50;;;11.94;76.15
20612;BME280;10465;42.686;23.364;2023-04-30T03:32:58;94697.78;;;11.91;75.89
20612;BME280;10465;42.686;23.364;2023-04-30T03:35:24;94691.03;;;12.02;75.02
20612;BME280;10465;42.686;23.364;2023-04-30T03:37:49;94704.44;;;12.06;74.79
20612;BME280;10465;42.686;23.364;2023-04-30T03:40:14;94682.97;;;11.90;74.81
20612;BME280;10465;42.686;23.364;2023-04-30T03:42:40;94710.84;;;12.05;75.51
20612;BME280;10465;42.686;23.364;2023-04-30T03:45:06;94712.75;;;11.96;76.02
20612;BME280;10465;42.686;23.364;2023-04-30T03:47:31;94723.38;;;11.96;76.19
20612;BME280;10465;42.686;23.364;2023-04-30T03:49:58;94721.63;;;12.00;76.71
20612;BME280;10465;42.686;23.364;2023-04-30T03:52:23;94686.56;;;11.77;76.83
20612;BME280;10465;42.686;23.364;2023-04-30T03:54:49;94720.84;;;12.08;76.87
20612;BME280;10465;42.686;23.364;2023-04-30T03:57:14;94720.06;;;11.99;76.77
20612;BME280;10465;42.686;23.364;2023-04-30T03:59:40;94734.72;;;12.05;76.49
20612;BME280;10465;42.686;23.364;2023-04-30T04:02:06;94720.56;;;11.92;76.94
20612;BME280;10465;42.686;23.364;2023-04-30T04:04:32;94722.88;;;12.02;77.53
20612;BME280;10465;42.686;23.364;2023-04-30T04:06:58;94726.31;;;11.94;78.50
20612;BME280;10465;42.686;23.364;2023-04-30T04:09:23;94734.41;;;12.06;78.01
20612;BME280;10465;42.686;23.364;2023-04-30T04:11:49;94736.75;;;12.08;77.71
20612;BME280;10465;42.686;23.364;2023-04-30T04:14:14;94722.97;;;12.15;77.28
20612;BME280;10465;42.686;23.364;2023-04-30T04:16:41;94720.50;;;12.09;77.21
20612;BME280;10465;42.686;23.364;2023-04-30T04:19:06;94727.69;;;12.09;77.93
20612;BME280;10465;42.686;23.364;2023-04-30T04:21:32;94733.28;;;12.16;78.87
20612;BME280;10465;42.686;23.364;2023-04-30T04:23:58;94708.19;;;12.05;79.16
20612;BME280;10465;42.686;23.364;2023-04-30T04:26:23;94748.56;;;12.19;79.02
20612;BME280;10465;42.686;23.364;2023-04-30T04:28:50;94737.81;;;12.16;78.50
20612;BME280;10465;42.686;23.364;2023-04-30T04:31:16;94722.72;;;11.99;78.44
20612;BME280;10465;42.686;23.364;2023-04-30T04:33:41;94726.44;;;12.06;77.22
20612;BME280;10465;42.686;23.364;2023-04-30T04:36:07;94682.94;;;11.81;76.48
20612;BME280;10465;42.686;23.364;2023-04-30T04:38:32;94730.50;;;12.12;76.52
20612;BME280;10465;42.686;23.364;2023-04-30T04:40:58;94745.59;;;12.21;76.93
20612;BME280;10465;42.686;23.364;2023-04-30T04:43:23;94728.34;;;11.97;77.14
20612;BME280;10465;42.686;23.364;2023-04-30T04:45:49;94718.06;;;11.96;76.85
20612;BME280;10465;42.686;23.364;2023-04-30T04:48:14;94739.84;;;12.10;76.36
20612;BME280;10465;42.686;23.364;2023-04-30T04:50:40;94748.84;;;12.26;76.27
20612;BME280;10465;42.686;23.364;2023-04-30T04:53:05;94743.41;;;12.23;75.07
20612;BME280;10465;42.686;23.364;2023-04-30T04:55:31;94756.47;;;12.36;74.54
20612;BME280;10465;42.686;23.364;2023-04-30T04:57:56;94755.41;;;12.29;74.80
20612;BME280;10465;42.686;23.364;2023-04-30T05:00:22;94769.25;;;12.43;74.51
20612;BME280;10465;42.686;23.364;2023-04-30T05:02:48;94768.28;;;12.56;72.25
20612;BME280;10465;42.686;23.364;2023-04-30T05:05:14;94773.06;;;12.63;72.79
20612;BME280;10465;42.686;23.364;2023-04-30T05:07:39;94768.09;;;12.61;74.58
20612;BME280;10465;42.686;23.364;2023-04-30T05:10:06;94764.81;;;12.65;74.98
20612;BME280;10465;42.686;23.364;2023-04-30T05:12:32;94769.75;;;12.75;74.87
20612;BME280;10465;42.686;23.364;2023-04-30T05:14:57;94765.88;;;12.72;74.54
20612;BME280;10465;42.686;23.364;2023-04-30T05:17:23;94755.91;;;12.60;74.12
20612;BME280;10465;42.686;23.364;2023-04-30T05:19:48;94772.00;;;12.64;73.46
20612;BME280;10465;42.686;23.364;2023-04-30T05:22:15;94743.22;;;12.36;73.91
20612;BME280;10465;42.686;23.364;2023-04-30T05:24:41;94776.38;;;12.60;73.76
20612;BME280;10465;42.686;23.364;2023-04-30T05:27:06;94751.44;;;12.52;73.73
20612;BME280;10465;42.686;23.364;2023-04-30T05:29:32;94745.00;;;12.53;73.68
20612;BME280;10465;42.686;23.364;2023-04-30T05:31:58;94768.72;;;12.58;73.96
20612;BME280;10465;42.686;23.364;2023-04-30T05:34:23;94767.31;;;12.61;73.45
20612;BME280;10465;42.686;23.364;2023-04-30T05:36:48;94761.38;;;12.55;73.25
20612;BME280;10465;42.686;23.364;2023-04-30T05:39:14;94774.81;;;12.59;72.85
20612;BME280;10465;42.686;23.364;2023-04-30T05:41:39;94728.97;;;12.41;72.85
20612;BME280;10465;42.686;23.364;2023-04-30T05:44:05;94771.47;;;12.71;73.20
20612;BME280;10465;42.686;23.364;2023-04-30T05:46:31;94770.34;;;12.80;73.31
20612;BME280;10465;42.686;23.364;2023-04-30T05:48:57;94771.00;;;12.77;73.05
20612;BME280;10465;42.686;23.364;2023-04-30T05:51:22;94743.84;;;12.63;72.99
20612;BME280;10465;42.686;23.364;2023-04-30T05:53:48;94752.88;;;12.71;72.26
20612;BME280;10465;42.686;23.364;2023-04-30T05:56:13;94774.09;;;12.79;72.19
20612;BME280;10465;42.686;23.364;2023-04-30T05:58:38;94750.09;;;12.67;72.32
20612;BME280;10465;42.686;23.364;2023-04-30T06:01:04;94773.25;;;12.87;72.47
20612;BME280;10465;42.686;23.364;2023-04-30T06:03:30;94771.22;;;12.93;72.14
20612;BME280;10465;42.686;23.364;2023-04-30T06:05:55;94776.34;;;12.98;71.77
20612;BME280;10465;42.686;23.364;2023-04-30T06:08:21;94766.53;;;12.90;71.68
20612;BME280;10465;42.686;23.364;2023-04-30T06:10:46;94768.88;;;12.92;71.50
20612;BME280;10465;42.686;23.364;2023-04-30T06:13:13;94776.34;;;12.98;71.55
20612;BME280;10465;42.686;23.364;2023-04-30T06:15:39;94770.44;;;12.93;72.09
20612;BME280;10465;42.686;23.364;2023-04-30T06:18:06;94783.63;;;13.10;71.83
20612;BME280;10465;42.686;23.364;2023-04-30T06:20:31;94772.38;;;13.04;71.69
20612;BME280;10465;42.686;23.364;2023-04-30T06:22:57;94778.75;;;13.12;71.89
20612;BME280;10465;42.686;23.364;2023-04-30T06:25:22;94787.44;;;13.30;71.08
20612;BME280;10465;42.686;23.364;2023-04-30T06:27:48;94770.72;;;13.29;71.72
20612;BME280;10465;42.686;23.364;2023-04-30T06:30:15;94793.09;;;13.49;71.63
20612;BME280;10465;42.686;23.364;2023-04-30T06:32:41;94791.13;;;13.58;71.43
20612;BME280;10465;42.686;23.364;2023-04-30T06:35:07;94795.28;;;13.68;70.46
20612;BME280;10465;42.686;23.364;2023-04-30T06:37:32;94791.19;;;13.71;69.92
20612;BME280;10465;42.686;23.364;2023-04-30T06:40:03;94792.47;;;13.85;70.08
20612;BME280;10465;42.686;23.364;2023-04-30T06:42:29;94801.69;;;13.88;69.83
20612;BME280;10465;42.686;23.364;2023-04-30T06:44:59;94788.84;;;13.90;68.34
20612;BME280;10465;42.686;23.364;2023-04-30T06:47:29;94783.09;;;14.00;67.48
20612;BME280;10465;42.686;23.364;2023-04-30T06:49:59;94765.81;;;14.06;66.70
20612;BME280;10465;42.686;23.364;2023-04-30T06:52:25;94794.94;;;14.36;64.87
20612;BME280;10465;42.686;23.364;2023-04-30T06:54:50;94789.75;;;14.40;63.96
20612;BME280;10465;42.686;23.364;2023-04-30T06:57:16;94787.31;;;14.47;63.48
20612;BME280;10465;42.686;23.364;2023-04-30T06:59:41;94797.03;;;14.64;62.84
20612;BME280;10465;42.686;23.364;2023-04-30T07:02:07;94793.78;;;14.82;62.60
20612;BME280;10465;42.686;23.364;2023-04-30T07:04:32;94780.28;;;14.88;62.18
20612;BME280;10465;42.686;23.364;2023-04-30T07:06:58;94787.50;;;14.99;62.09
20612;BME280;10465;42.686;23.364;2023-04-30T07:09:29;94796.25;;;15.12;62.03
20612;BME280;10465;42.686;23.364;2023-04-30T07:11:54;94792.91;;;15.15;61.57
20612;BME280;10465;42.686;23.364;2023-04-30T07:14:20;94779.47;;;15.12;60.80
20612;BME280;10465;42.686;23.364;2023-04-30T07:16:45;94801.69;;;15.28;60.58
20612;BME280;10465;42.686;23.364;2023-04-30T07:19:14;94808.09;;;15.39;60.24
20612;BME280;10465;42.686;23.364;2023-04-30T07:21:39;94803.09;;;15.38;60.85
20612;BME280;10465;42.686;23.364;2023-04-30T07:24:04;94801.97;;;15.39;60.41
20612;BME280;10465;42.686;23.364;2023-04-30T07:26:30;94808.78;;;15.36;60.08
20612;BME280;10465;42.686;23.364;2023-04-30T07:28:55;94787.00;;;15.34;60.04
20612;BME280;10465;42.686;23.364;2023-04-30T07:31:21;94808.19;;;15.43;60.13
20612;BME280;10465;42.686;23.364;2023-04-30T07:33:47;94798.09;;;15.48;60.01
20612;BME280;10465;42.686;23.364;2023-04-30T07:36:14;94786.19;;;15.46;59.87
20612;BME280;10465;42.686;23.364;2023-04-30T07:38:39;94807.06;;;15.56;59.40
20612;BME280;10465;42.686;23.364;2023-04-30T07:41:05;94806.28;;;15.55;58.93
20612;BME280;10465;42.686;23.364;2023-04-30T07:43:32;94809.81;;;15.59;58.91
20612;BME280;10465;42.686;23.364;2023-04-30T07:45:57;94807.59;;;15.62;58.83
20612;BME280;10465;42.686;23.364;2023-04-30T07:48:23;94791.63;;;15.49;58.52
20612;BME280;10465;42.686;23.364;2023-04-30T07:50:49;94800.16;;;15.55;58.18
20612;BME280;10465;42.686;23.364;2023-04-30T07:53:14;94801.75;;;15.56;58.19
20612;BME280;10465;42.686;23.364;2023-04-30T07:55:40;94806.16;;;15.64;58.08
20612;BME280;10465;42.686;23.364;2023-04-30T07:58:07;94807.19;;;15.72;58.03
20612;BME280;10465;42.686;23.364;2023-04-30T08:00:33;94795.50;;;15.64;57.33
20612;BME280;10465;42.686;23.364;2023-04-30T08:02:58;94807.00;;;15.93;57.02
20612;BME280;10465;42.686;23.364;2023-04-30T08:05:25;94799.56;;;16.14;56.63
20612;BME280;10465;42.686;23.364;2023-04-30T08:07:51;94801.13;;;16.31;55.81
20612;BME280;10465;42.686;23.364;2023-04-30T08:10:16;94808.13;;;16.51;55.25
20612;BME280;10465;42.686;23.364;2023-04-30T08:12:42;94802.97;;;16.59;54.18
20612;BME280;10465;42.686;23.364;2023-04-30T08:15:08;94801.34;;;16.70;53.09
20612;BME280;10465;42.686;23.364;2023-04-30T08:17:34;94805.78;;;16.78;52.86
20612;BME280;10465;42.686;23.364;2023-04-30T08:20:00;94796.91;;;16.74;52.47
20612;BME280;10465;42.686;23.364;2023-04-30T08:22:26;94803.78;;;16.75;52.66
20612;BME280;10465;42.686;23.364;2023-04-30T08:24:51;94801.19;;;16.78;52.52
20612;BME280;10465;42.686;23.364;2023-04-30T08:27:17;94810.56;;;16.72;52.62
20612;BME280;10465;42.686;23.364;2023-04-30T08:29:42;94809.09;;;16.59;52.92
20612;BME280;10465;42.686;23.364;2023-04-30T08:32:08;94814.25;;;16.68;53.30
20612;BME280;10465;42.686;23.364;2023-04-30T08:34:33;94812.28;;;16.49;53.58
20612;BME280;10465;42.686;23.364;2023-04-30T08:36:59;94816.16;;;16.51;54.37
20612;BME280;10465;42.686;23.364;2023-04-30T08:39:25;94802.53;;;16.41;55.64
20612;BME280;10465;42.686;23.364;2023-04-30T08:41:54;94806.03;;;16.29;57.28
20612;BME280;10465;42.686;23.364;2023-04-30T08:44:26;94797.75;;;16.18;55.98
20612;BME280;10465;42.686;23.364;2023-04-30T08:46:55;94805.84;;;16.22;56.04
20612;BME280;10465;42.686;23.364;2023-04-30T08:49:22;94805.34;;;16.32;56.37
20612;BME280;10465;42.686;23.364;2023-04-30T08:51:48;94805.97;;;16.41;56.14
20612;BME280;10465;42.686;23.364;2023-04-30T08:54:14;94782.72;;;16.42;55.04
20612;BME280;10465;42.686;23.364;2023-04-30T08:56:40;94797.44;;;16.51;54.35
20612;BME280;10465;42.686;23.364;2023-04-30T08:59:06;94792.31;;;16.74;53.75
20612;BME280;10465;42.686;23.364;2023-04-30T09:01:32;94796.72;;;16.98;52.77
20612;BME280;10465;42.686;23.364;2023-04-30T09:03:58;94781.63;;;17.25;51.46
20612;BME280;10465;42.686;23.364;2023-04-30T09:06:23;94770.88;;;17.41;50.47
20612;BME280;10465;42.686;23.364;2023-04-30T09:08:49;94785.47;;;17.79;50.00
20612;BME280;10465;42.686;23.364;2023-04-30T09:11:26;94765.69;;;17.84;48.93
20612;BME280;10465;42.686;23.364;2023-04-30T09:13:54;94773.03;;;18.10;48.03
20612;BME280;10465;42.686;23.364;2023-04-30T09:16:21;94760.19;;;18.19;47.48
20612;BME280;10465;42.686;23.364;2023-04-30T09:18:47;94761.16;;;18.30;47.31
20612;BME280;10465;42.686;23.364;2023-04-30T09:21:13;94752.38;;;18.52;46.59
20612;BME280;10465;42.686;23.364;2023-04-30T09:23:55;94761.22;;;18.76;46.33
20612;BME280;10465;42.686;23.364;2023-04-30T09:26:25;94753.81;;;18.92;45.41
20612;BME280;10465;42.686;23.364;2023-04-30T09:28:56;94747.59;;;18.88;45.13
20612;BME280;10465;42.686;23.364;2023-04-30T09:31:22;94732.03;;;18.97;44.10
20612;BME280;10465;42.686;23.364;2023-04-30T09:33:49;94750.88;;;19.31;44.06
20612;BME280;10465;42.686;23.364;2023-04-30T09:36:15;94753.69;;;19.38;44.00
20612;BME280;10465;42.686;23.364;2023-04-30T09:38:41;94745.94;;;19.33;43.15
20612;BME280;10465;42.686;23.364;2023-04-30T09:41:26;94726.84;;;19.38;42.37
20612;BME280;10465;42.686;23.364;2023-04-30T09:43:55;94736.72;;;19.61;41.98
20612;BME280;10465;42.686;23.364;2023-04-30T09:46:28;94740.25;;;19.65;41.90
20612;BME280;10465;42.686;23.364;2023-04-30T09:48:56;94741.44;;;19.41;42.49
20612;BME280;10465;42.686;23.364;2023-04-30T09:51:22;94744.69;;;19.27;43.52
20612;BME280;10465;42.686;23.364;2023-04-30T09:53:49;94736.81;;;19.11;42.88
20612;BME280;10465;42.686;23.364;2023-04-30T09:56:21;94743.97;;;19.03;43.79
20612;BME280;10465;42.686;23.364;2023-04-30T09:58:49;94726.25;;;18.95;44.27
20612;BME280;10465;42.686;23.364;2023-04-30T10:01:17;94722.88;;;18.75;43.89
20612;BME280;10465;42.686;23.364;2023-04-30T10:03:42;94733.50;;;18.95;43.79
20612;BME280;10465;42.686;23.364;2023-04-30T10:06:12;94735.13;;;19.26;43.09
20612;BME280;10465;42.686;23.364;2023-04-30T10:08:41;94727.47;;;19.28;43.03
20612;BME280;10465;42.686;23.364;2023-04-30T10:11:08;94723.44;;;19.41;43.51
20612;BME280;10465;42.686;23.364;2023-04-30T10:13:44;94723.47;;;19.75;44.94
20612;BME280;10465;42.686;23.364;2023-04-30T10:16:18;94713.53;;;19.79;42.29
20612;BME280;10465;42.686;23.364;2023-04-30T10:18:50;94702.72;;;20.06;41.54
20612;BME280;10465;42.686;23.364;2023-04-30T10:21:17;94706.59;;;20.12;41.29
20612;BME280;10465;42.686;23.364;2023-04-30T10:23:45;94665.19;;;19.45;41.95
20612;BME280;10465;42.686;23.364;2023-04-30T10:26:13;94715.19;;;19.57;43.16
20612;BME280;10465;42.686;23.364;2023-04-30T10:28:41;94743.56;;;19.28;45.31
20612;BME280;10465;42.686;23.364;2023-04-30T10:31:07;94752.28;;;18.95;44.48
20612;BME280;10465;42.686;23.364;2023-04-30T10:34:05;94759.91;;;18.47;46.98
20612;BME280;10465;42.686;23.364;2023-04-30T10:36:44;94750.00;;;18.05;49.62
20612;BME280;10465;42.686;23.364;2023-04-30T10:39:17;94749.47;;;17.76;53.04
20612;BME280;10465;42.686;23.364;2023-04-30T10:41:44;94764.56;;;17.49;55.27
20612;BME280;10465;42.686;23.364;2023-04-30T10:44:11;94772.09;;;17.09;58.73
20612;BME280;10465;42.686;23.364;2023-04-30T10:46:37;94746.09;;;16.90;60.11
20612;BME280;10465;42.686;23.364;2023-04-30T10:49:03;94744.59;;;16.92;59.52
20612;BME280;10465;42.686;23.364;2023-04-30T10:51:46;94736.41;;;17.01;60.73
20612;BME280;10465;42.686;23.364;2023-04-30T10:54:14;94746.34;;;17.55;63.65
20612;BME280;10465;42.686;23.364;2023-04-30T10:56:43;94758.31;;;18.19;61.22
20612;BME280;10465;42.686;23.364;2023-04-30T10:59:09;94753.16;;;18.53;58.33
20612;BME280;10465;42.686;23.364;2023-04-30T11:01:54;94739.03;;;19.06;53.03
20612;BME280;10465;42.686;23.364;2023-04-30T11:04:20;94742.88;;;19.35;51.09
20612;BME280;10465;42.686;23.364;2023-04-30T11:09:43;94750.22;;;19.98;50.61
20612;BME280;10465;42.686;23.364;2023-04-30T11:12:10;94736.25;;;20.22;47.60
20612;BME280;10465;42.686;23.364;2023-04-30T11:14:39;94739.69;;;20.19;46.99
20612;BME280;10465;42.686;23.364;2023-04-30T11:17:06;94743.25;;;19.93;44.18
20612;BME280;10465;42.686;23.364;2023-04-30T11:19:31;94750.66;;;19.70;45.34
20612;BME280;10465;42.686;23.364;2023-04-30T11:27:27;94735.06;;;19.22;46.13
20612;BME280;10465;42.686;23.364;2023-04-30T11:29:54;94742.59;;;19.13;46.77
20612;BME280;10465;42.686;23.364;2023-04-30T11:32:23;94752.00;;;19.00;48.54
20612;BME280;10465;42.686;23.364;2023-04-30T11:34:49;94751.06;;;18.89;49.84
20612;BME280;10465;42.686;23.364;2023-04-30T11:37:20;94743.22;;;18.76;49.10
20612;BME280;10465;42.686;23.364;2023-04-30T11:39:47;94733.75;;;18.63;51.49
20612;BME280;10465;42.686;23.364;2023-04-30T11:42:19;94745.41;;;18.48;52.85
20612;BME280;10465;42.686;23.364;2023-04-30T11:44:45;94735.53;;;18.52;54.74
20612;BME280;10465;42.686;23.364;2023-04-30T11:47:14;94738.66;;;18.58;57.05
20612;BME280;10465;42.686;23.364;2023-04-30T11:49:40;94723.00;;;18.60;58.42
20612;BME280;10465;42.686;23.364;2023-04-30T11:52:06;94747.31;;;18.70;58.67
20612;BME280;10465;42.686;23.364;2023-04-30T11:54:36;94742.78;;;18.74;58.35
20612;BME280;10465;42.686;23.364;2023-04-30T11:57:02;94731.09;;;18.86;57.59
20612;BME280;10465;42.686;23.364;2023-04-30T11:59:29;94740.19;;;19.05;55.85
20612;BME280;10465;42.686;23.364;2023-04-30T12:01:54;94734.78;;;19.31;54.98
20612;BME280;10465;42.686;23.364;2023-04-30T12:04:20;94736.38;;;19.36;54.48
20612;BME280;10465;42.686;23.364;2023-04-30T12:06:46;94739.16;;;19.13;55.42
20612;BME280;10465;42.686;23.364;2023-04-30T12:09:12;94729.13;;;18.83;53.81
20612;BME280;10465;42.686;23.364;2023-04-30T12:11:37;94727.06;;;18.73;54.53
20612;BME280;10465;42.686;23.364;2023-04-30T12:14:05;94695.25;;;18.48;54.59
20612;BME280;10465;42.686;23.364;2023-04-30T12:16:44;94737.25;;;18.64;53.89
20612;BME280;10465;42.686;23.364;2023-04-30T12:19:20;94736.34;;;18.33;54.33
20612;BME280;10465;42.686;23.364;2023-04-30T12:21:47;94747.94;;;18.18;57.51
20612;BME280;10465;42.686;23.364;2023-04-30T12:24:14;94753.53;;;17.90;58.95
20612;BME280;10465;42.686;23.364;2023-04-30T12:26:41;94771.56;;;17.73;60.82
20612;BME280;10465;42.686;23.364;2023-04-30T12:29:17;94769.59;;;17.51;61.48
20612;BME280;10465;42.686;23.364;2023-04-30T12:31:43;94753.06;;;17.29;61.50
20612;BME280;10465;42.686;23.364;2023-04-30T12:34:12;94755.16;;;17.20;62.48
20612;BME280;10465;42.686;23.364;2023-04-30T12:36:39;94747.81;;;16.98;63.99
20612;BME280;10465;42.686;23.364;2023-04-30T12:39:14;94750.47;;;16.98;63.59
20612;BME280;10465;42.686;23.364;2023-04-30T12:41:47;94750.63;;;16.89;64.13
20612;BME280;10465;42.686;23.364;2023-04-30T12:46:41;94751.66;;;17.00;64.98
20612;BME280;10465;42.686;23.364;2023-04-30T12:49:07;94738.22;;;16.97;64.36
20612;BME280;10465;42.686;23.364;2023-04-30T12:51:36;94750.88;;;17.16;64.62
20612;BME280;10465;42.686;23.364;2023-04-30T12:54:04;94744.31;;;17.13;64.44
20612;BME280;10465;42.686;23.364;2023-04-30T12:56:30;94749.34;;;17.34;63.88
20612;BME280;10465;42.686;23.364;2023-04-30T12:58:55;94752.72;;;17.31;61.26
20612;BME280;10465;42.686;23.364;2023-04-30T13:01:21;94733.22;;;17.50;61.67
20612;BME280;10465;42.686;23.364;2023-04-30T13:03:50;94695.75;;;17.89;59.01
20612;BME280;10465;42.686;23.364;2023-04-30T13:06:16;94747.06;;;18.33;56.57
20612;BME280;10465;42.686;23.364;2023-04-30T13:08:43;94743.59;;;18.33;56.55
20612;BME280;10465;42.686;23.364;2023-04-30T13:11:09;94735.34;;;18.41;56.18
20612;BME280;10465;42.686;23.364;2023-04-30T13:13:34;94732.72;;;18.02;57.53